createdAt,value
2019-02-19T00:00:58.195Z,9.47
2019-02-19T00:03:27.761Z,8.40
2019-02-19T00:05:58.428Z,8.77
2019-02-19T00:08:30.884Z,8.13
2019-02-19T00:11:00.212Z,8.80
2019-02-19T00:13:29.766Z,9.03
2019-02-19T00:15:59.059Z,8.50
2019-02-19T00:18:29.681Z,8.93
2019-02-19T00:20:59.258Z,9.70
2019-02-19T00:23:29.163Z,8.83
2019-02-19T00:25:58.536Z,8.63
2019-02-19T00:28:28.091Z,8.63
2019-02-19T00:30:57.519Z,8.07
2019-02-19T00:33:26.975Z,8.50
2019-02-19T00:35:56.460Z,8.77
2019-02-19T00:38:25.828Z,8.57
2019-02-19T00:40:56.863Z,8.80
2019-02-19T00:43:32.481Z,8.30
2019-02-19T00:46:02.000Z,8.20
2019-02-19T00:48:31.243Z,9.30
2019-02-19T00:51:00.479Z,8.77
2019-02-19T00:53:32.445Z,9.17
2019-02-19T00:56:02.371Z,9.00
2019-02-19T00:58:32.346Z,8.70
2019-02-19T01:01:16.541Z,8.80
2019-02-19T01:03:48.882Z,8.33
2019-02-19T01:06:18.345Z,8.73
2019-02-19T01:08:47.693Z,9.13
2019-02-19T01:11:16.975Z,8.83
2019-02-19T01:13:46.434Z,8.73
2019-02-19T01:16:15.659Z,9.70
2019-02-19T01:18:45.252Z,9.43
2019-02-19T01:21:14.619Z,9.17
2019-02-19T01:23:46.289Z,8.77
2019-02-19T01:26:15.577Z,9.43
2019-02-19T01:28:45.227Z,8.83
2019-02-19T01:31:14.869Z,9.60
2019-02-19T01:33:44.172Z,9.50
2019-02-19T01:36:13.674Z,9.20
2019-02-19T01:38:43.018Z,8.83
2019-02-19T01:41:12.446Z,9.77
2019-02-19T01:43:43.641Z,9.07
2019-02-19T01:46:13.372Z,9.47
2019-02-19T01:48:42.883Z,9.17
2019-02-19T01:51:12.782Z,9.20
2019-02-19T01:53:42.159Z,9.33
2019-02-19T01:56:16.751Z,9.47
2019-02-19T01:58:46.156Z,8.93
2019-02-19T02:01:15.494Z,9.20
2019-02-19T02:03:45.319Z,9.50
2019-02-19T02:06:17.795Z,10.07
2019-02-19T02:08:47.308Z,8.70
2019-02-19T02:11:16.579Z,9.50
2019-02-19T02:13:48.203Z,9.73
2019-02-19T02:16:17.571Z,9.47
2019-02-19T02:18:46.847Z,10.47
2019-02-19T02:21:16.120Z,9.70
2019-02-19T02:23:45.391Z,10.13
2019-02-19T02:26:14.570Z,9.57
2019-02-19T02:28:43.740Z,9.30
2019-02-19T02:31:12.984Z,9.67
2019-02-19T02:33:42.908Z,9.73
2019-02-19T02:36:13.112Z,9.90
2019-02-19T02:38:42.496Z,9.97
2019-02-19T02:41:15.333Z,10.30
2019-02-19T02:43:44.754Z,10.10
2019-02-19T02:46:14.416Z,9.90
2019-02-19T02:48:50.227Z,10.33
2019-02-19T02:51:19.607Z,9.60
2019-02-19T02:53:49.138Z,10.07
2019-02-19T02:56:18.409Z,10.17
2019-02-19T02:58:47.694Z,10.00
2019-02-19T03:01:16.974Z,10.50
2019-02-19T03:03:46.490Z,10.23
2019-02-19T03:06:33.530Z,10.50
2019-02-19T03:09:04.236Z,11.67
2019-02-19T03:11:33.554Z,10.30
2019-02-19T03:14:03.595Z,10.30
2019-02-19T03:16:33.106Z,10.67
2019-02-19T03:19:02.567Z,10.53
2019-02-19T03:21:32.512Z,10.47
2019-02-19T03:24:02.338Z,10.37
2019-02-19T03:26:39.967Z,12.20
2019-02-19T03:29:20.732Z,11.13
2019-02-19T03:31:50.334Z,11.13
2019-02-19T03:34:19.875Z,11.53
2019-02-19T03:36:50.262Z,11.57
2019-02-19T03:39:19.827Z,11.87
2019-02-19T03:41:49.525Z,11.50
2019-02-19T03:44:19.123Z,12.10
2019-02-19T03:46:48.722Z,12.30
2019-02-19T03:49:18.532Z,12.03
2019-02-19T03:51:52.713Z,13.07
2019-02-19T03:57:25.717Z,12.97
2019-02-19T03:59:55.104Z,12.60
2019-02-19T04:02:24.485Z,13.67
2019-02-19T04:04:53.759Z,13.43
2019-02-19T04:07:22.999Z,13.40
2019-02-19T04:09:52.179Z,13.80
2019-02-19T04:12:21.551Z,13.77
2019-02-19T04:14:50.900Z,14.90
2019-02-19T04:17:20.152Z,15.43
2019-02-19T04:19:49.533Z,13.87
2019-02-19T04:22:18.734Z,14.50
2019-02-19T04:24:47.964Z,14.93
2019-02-19T04:27:17.359Z,14.30
2019-02-19T04:29:46.744Z,14.87
2019-02-19T04:32:16.179Z,15.60
2019-02-19T04:34:48.434Z,16.10
2019-02-19T04:37:18.213Z,16.17
2019-02-19T04:39:47.799Z,15.43
2019-02-19T04:42:18.330Z,15.97
2019-02-19T04:44:47.789Z,16.07
2019-02-19T04:47:17.046Z,15.57
2019-02-19T04:49:46.205Z,16.10
2019-02-19T04:52:15.492Z,16.60
2019-02-19T04:54:44.681Z,16.60
2019-02-19T04:57:13.916Z,16.30
2019-02-19T04:59:43.249Z,17.80
2019-02-19T05:02:12.483Z,17.90
2019-02-19T05:04:41.700Z,18.20
2019-02-19T05:07:10.956Z,19.00
2019-02-19T05:09:40.194Z,18.33
2019-02-19T05:12:10.137Z,19.43
2019-02-19T05:15:06.785Z,18.37
2019-02-19T05:17:37.342Z,18.60
2019-02-19T05:20:34.466Z,19.00
2019-02-19T05:26:23.080Z,19.07
2019-02-19T05:28:52.364Z,19.37
2019-02-19T05:31:21.877Z,19.20
2019-02-19T05:34:30.558Z,19.50
2019-02-19T06:23:54.581Z,23.83
2019-02-19T06:26:29.537Z,23.73
2019-02-19T07:31:46.357Z,23.73
2019-02-19T07:37:17.010Z,23.97
2019-02-19T07:40:13.478Z,24.03
2019-02-19T07:42:53.545Z,23.83
2019-02-19T07:54:31.791Z,24.23
2019-02-19T07:57:02.664Z,25.17
2019-02-19T07:59:51.745Z,25.07
2019-02-19T08:02:54.761Z,24.60
2019-02-19T08:08:27.102Z,24.47
2019-02-19T08:10:59.710Z,25.30
2019-02-19T08:13:29.534Z,24.60
2019-02-19T08:15:59.354Z,24.83
2019-02-19T08:18:35.080Z,24.00
2019-02-19T08:23:59.558Z,23.20
2019-02-19T08:26:28.727Z,23.70
2019-02-19T08:29:11.313Z,21.00
2019-02-19T08:31:29.062Z,22.43
2019-02-19T08:33:58.329Z,23.40
2019-02-19T08:36:29.583Z,20.27
2019-02-19T08:38:58.851Z,20.63
2019-02-19T08:41:28.557Z,21.23
2019-02-19T08:43:57.771Z,21.03
2019-02-19T08:46:26.931Z,21.23
2019-02-19T08:48:58.062Z,21.13
2019-02-19T08:51:27.488Z,20.70
2019-02-19T08:54:01.306Z,19.77
2019-02-19T08:56:30.695Z,19.53
2019-02-19T08:58:59.945Z,20.17
2019-02-19T09:01:34.079Z,20.90
2019-02-19T09:04:03.480Z,19.93
2019-02-19T09:06:33.083Z,19.67
2019-02-19T09:09:02.366Z,17.70
2019-02-19T09:11:31.543Z,18.23
2019-02-19T09:14:13.008Z,18.17
2019-02-19T09:16:42.603Z,18.67
2019-02-19T09:19:11.806Z,19.23
2019-02-19T09:21:41.066Z,18.53
2019-02-19T09:24:10.348Z,18.00
2019-02-19T09:26:39.594Z,18.43
2019-02-19T09:29:09.202Z,18.90
2019-02-19T09:31:40.558Z,18.83
2019-02-19T09:34:09.759Z,18.43
2019-02-19T09:36:39.277Z,17.80
2019-02-19T09:39:08.471Z,16.37
2019-02-19T09:41:37.755Z,17.30
2019-02-19T09:44:06.939Z,16.73
2019-02-19T09:46:36.236Z,17.30
2019-02-19T09:49:05.469Z,17.20
2019-02-19T09:51:34.708Z,16.83
2019-02-19T09:54:03.912Z,15.37
2019-02-19T09:56:33.168Z,15.67
2019-02-19T09:59:02.468Z,14.43
2019-02-19T10:01:31.743Z,14.70
2019-02-19T10:04:01.001Z,15.20
2019-02-19T10:06:30.297Z,14.93
2019-02-19T10:08:59.597Z,14.60
2019-02-19T10:11:28.860Z,14.17
2019-02-19T10:13:58.203Z,14.30
2019-02-19T10:16:27.404Z,15.20
2019-02-19T10:18:56.667Z,14.90
2019-02-19T10:21:25.910Z,14.53
2019-02-19T10:23:55.147Z,15.37
2019-02-19T10:26:24.331Z,13.93
2019-02-19T10:28:53.559Z,13.33
2019-02-19T10:31:22.738Z,14.57
2019-02-19T10:33:51.900Z,12.73
2019-02-19T10:36:21.118Z,11.90
2019-02-19T10:38:50.420Z,12.60
2019-02-19T10:41:19.698Z,12.30
2019-02-19T10:43:48.960Z,11.17
2019-02-19T10:46:18.320Z,11.30
2019-02-19T10:48:47.694Z,10.57
2019-02-19T10:51:17.100Z,9.97
2019-02-19T10:53:46.344Z,9.60
2019-02-19T10:56:15.517Z,9.77
2019-02-19T10:58:44.793Z,10.00
2019-02-19T11:01:13.974Z,9.20
2019-02-19T11:03:43.220Z,9.73
2019-02-19T11:06:12.455Z,8.90
2019-02-19T11:08:42.239Z,9.53
2019-02-19T11:11:11.422Z,9.63
2019-02-19T11:13:40.670Z,9.70
2019-02-19T11:16:09.859Z,9.23
2019-02-19T11:18:39.123Z,8.43
2019-02-19T11:21:08.319Z,8.17
2019-02-19T11:23:37.607Z,8.50
2019-02-19T11:26:06.877Z,8.60
2019-02-19T11:28:36.236Z,8.03
2019-02-19T11:31:05.513Z,8.10
2019-02-19T11:33:34.802Z,7.80
2019-02-19T11:36:04.087Z,7.83
2019-02-19T11:38:33.428Z,8.10
2019-02-19T11:41:02.710Z,8.70
2019-02-19T11:43:33.145Z,8.20
2019-02-19T11:46:02.421Z,8.10
2019-02-19T11:48:36.963Z,7.90
2019-02-19T11:51:02.543Z,7.93
2019-02-19T11:53:31.672Z,7.73
2019-02-19T11:56:00.831Z,7.00
2019-02-19T11:58:30.054Z,7.27
2019-02-19T12:00:59.435Z,7.77
2019-02-19T12:03:28.696Z,8.00
2019-02-19T12:05:57.932Z,7.17
2019-02-19T12:08:27.152Z,7.13
2019-02-19T12:10:56.345Z,7.17
2019-02-19T12:13:25.511Z,7.37
2019-02-19T12:15:54.780Z,7.30
2019-02-19T12:18:23.998Z,7.37
2019-02-19T12:20:53.252Z,6.97
2019-02-19T12:23:22.540Z,6.83
2019-02-19T12:25:51.689Z,7.27
2019-02-19T12:28:20.952Z,6.73
2019-02-19T12:30:50.122Z,7.30
2019-02-19T12:33:19.297Z,6.73
2019-02-19T12:35:48.660Z,7.07
2019-02-19T12:38:17.903Z,6.90
2019-02-19T12:40:47.238Z,6.60
2019-02-19T12:43:16.453Z,6.80
2019-02-19T12:45:45.655Z,6.17
2019-02-19T12:48:14.827Z,6.43
2019-02-19T12:50:44.071Z,6.63
2019-02-19T12:53:13.327Z,6.30
2019-02-19T12:55:43.694Z,6.80
2019-02-19T12:58:13.047Z,5.80
2019-02-19T13:00:42.225Z,6.27
2019-02-19T13:03:11.430Z,5.73
2019-02-19T13:05:43.041Z,5.87
2019-02-19T13:08:12.277Z,6.00
2019-02-19T13:10:41.486Z,6.30
2019-02-19T13:13:10.563Z,6.27
2019-02-19T13:15:39.814Z,6.57
2019-02-19T13:18:08.981Z,5.87
2019-02-19T13:20:38.222Z,5.67
2019-02-19T13:23:07.523Z,5.83
2019-02-19T13:25:36.676Z,5.80
2019-02-19T13:28:05.900Z,5.27
2019-02-19T13:30:35.193Z,4.73
2019-02-19T13:33:04.466Z,4.87
2019-02-19T13:35:33.752Z,4.50
2019-02-19T13:38:03.047Z,5.10
2019-02-19T13:40:32.341Z,4.87
2019-02-19T13:43:01.527Z,5.07
2019-02-19T13:45:30.736Z,5.33
2019-02-19T13:48:05.701Z,5.20
2019-02-19T13:50:30.866Z,5.50
2019-02-19T13:53:07.957Z,5.77
2019-02-19T13:55:40.091Z,5.40
2019-02-19T13:58:09.405Z,5.33
2019-02-19T14:00:40.620Z,6.23
2019-02-19T14:03:09.912Z,5.90
2019-02-19T14:05:39.081Z,5.97
2019-02-19T14:08:14.230Z,5.67
2019-02-19T14:10:39.185Z,5.53
2019-02-19T14:13:08.360Z,5.80
2019-02-19T14:15:55.791Z,5.67
2019-02-19T14:18:42.385Z,5.67
2019-02-19T14:21:38.124Z,6.13
2019-02-19T14:24:23.860Z,6.10
2019-02-19T14:27:10.538Z,6.20
2019-02-19T14:30:07.648Z,6.40
2019-02-19T14:32:58.967Z,6.30
2019-02-19T14:35:56.206Z,6.50
2019-02-19T14:38:49.801Z,6.63
2019-02-19T14:41:35.389Z,6.43
2019-02-19T14:44:32.959Z,7.37
2019-02-19T14:47:08.797Z,6.60
2019-02-19T14:49:52.185Z,6.67
2019-02-19T14:52:55.349Z,7.10
2019-02-19T14:55:34.511Z,7.30
2019-02-19T14:58:17.803Z,7.50
2019-02-19T15:04:56.972Z,7.23
2019-02-19T15:07:48.203Z,6.40
2019-02-19T15:10:32.142Z,6.53
2019-02-19T15:13:06.622Z,6.87
2019-02-19T15:16:00.791Z,6.23
2019-02-19T15:19:02.749Z,6.77
2019-02-19T15:21:50.910Z,6.27
2019-02-19T15:24:39.230Z,6.77
2019-02-19T15:27:22.368Z,6.67
2019-02-19T15:30:14.680Z,6.80
2019-02-19T15:33:18.067Z,6.27
2019-02-19T15:36:03.439Z,5.60
2019-02-19T15:38:50.357Z,5.80
2019-02-19T15:41:31.531Z,6.50
2019-02-19T15:44:17.692Z,6.33
2019-02-19T15:47:08.536Z,6.03
2019-02-19T15:50:05.363Z,6.00
2019-02-19T15:52:52.535Z,5.70
2019-02-19T15:55:58.482Z,5.77
2019-02-19T15:58:39.118Z,6.53
2019-02-19T16:01:36.358Z,6.50
2019-02-19T16:04:24.689Z,6.13
2019-02-19T16:07:00.284Z,6.87
2019-02-19T16:09:45.305Z,6.27
2019-02-19T16:12:23.437Z,6.43
2019-02-19T16:15:26.883Z,6.60
2019-02-19T16:18:04.305Z,6.47
2019-02-19T16:20:40.188Z,6.10
2019-02-19T16:23:26.891Z,5.57
2019-02-19T16:26:12.196Z,6.27
2019-02-19T16:29:03.271Z,5.67
2019-02-19T16:31:48.731Z,6.07
2019-02-19T16:34:24.044Z,5.77
2019-02-19T16:37:05.453Z,5.90
2019-02-19T16:39:48.141Z,6.60
2019-02-19T16:42:36.473Z,5.97
2019-02-19T16:45:16.306Z,6.43
2019-02-19T16:48:01.018Z,5.80
2019-02-19T16:50:47.267Z,6.37
2019-02-19T16:53:38.631Z,6.63
2019-02-19T16:56:23.463Z,4.37
2019-02-19T17:17:30.121Z,2.43
2019-02-19T17:20:30.289Z,2.40
2019-02-19T17:51:12.263Z,5.40
2019-02-19T18:01:37.952Z,6.60
2019-02-19T18:04:12.652Z,6.40
2019-02-19T18:06:59.657Z,6.07
2019-02-19T18:09:47.855Z,6.60
2019-02-19T18:12:48.399Z,6.43
2019-02-19T18:15:35.322Z,6.60
2019-02-19T18:18:23.714Z,6.90
2019-02-19T18:20:52.901Z,7.10
2019-02-19T18:23:22.084Z,7.13
2019-02-19T18:25:51.351Z,7.00
2019-02-19T18:28:20.672Z,7.37
2019-02-19T18:30:49.874Z,8.07
2019-02-19T18:33:19.208Z,7.70
2019-02-19T18:35:48.497Z,7.40
2019-02-19T18:38:17.676Z,7.93
2019-02-19T18:40:46.982Z,8.80
2019-02-19T18:43:16.384Z,9.87
2019-02-19T18:45:46.100Z,9.40
2019-02-19T18:48:15.573Z,9.73
2019-02-19T18:50:45.030Z,9.80
2019-02-19T18:53:14.472Z,9.27
2019-02-19T18:55:43.954Z,8.50
2019-02-19T19:01:01.798Z,8.20
2019-02-19T19:03:34.578Z,8.20
2019-02-19T19:06:05.500Z,8.03
2019-02-19T19:08:34.838Z,8.03
2019-02-19T19:11:04.530Z,7.70
2019-02-19T19:13:34.268Z,8.00
2019-02-19T19:16:03.732Z,7.97
2019-02-19T19:18:33.443Z,7.97
2019-02-19T19:21:08.039Z,8.57
2019-02-19T19:23:33.664Z,8.63
2019-02-19T19:26:02.628Z,8.17
2019-02-19T19:28:31.667Z,8.63
2019-02-19T19:31:00.605Z,6.93
2019-02-19T19:33:29.627Z,7.23
2019-02-19T19:35:58.598Z,6.70
2019-02-19T19:38:27.522Z,6.60
2019-02-19T19:40:56.384Z,6.60
2019-02-19T19:43:25.283Z,7.00
2019-02-19T19:45:54.239Z,6.70
2019-02-19T19:48:23.327Z,6.97
2019-02-19T19:50:52.162Z,7.17
2019-02-19T19:53:21.136Z,7.33
2019-02-19T19:55:50.010Z,7.77
2019-02-19T19:58:18.865Z,8.00
2019-02-19T20:00:47.836Z,7.93
2019-02-19T20:03:17.498Z,8.30
2019-02-19T20:05:46.814Z,7.83
2019-02-19T20:08:16.039Z,7.80
2019-02-19T20:10:45.221Z,7.77
2019-02-19T20:13:14.084Z,8.13
2019-02-19T20:15:46.595Z,8.27
2019-02-19T20:18:15.905Z,8.53
2019-02-19T20:20:45.158Z,7.70
2019-02-19T20:23:14.027Z,7.90
2019-02-19T20:25:43.012Z,8.60
2019-02-19T20:28:12.057Z,7.50
2019-02-19T20:30:41.044Z,7.33
2019-02-19T20:33:09.931Z,7.57
2019-02-19T20:35:39.020Z,7.20
2019-02-19T20:38:07.955Z,7.33
2019-02-19T20:40:37.032Z,7.47
2019-02-19T20:43:05.944Z,7.23
2019-02-19T20:45:34.911Z,7.30
2019-02-19T20:48:03.852Z,6.80
2019-02-19T20:50:33.015Z,7.17
2019-02-19T20:53:01.915Z,6.70
2019-02-19T20:55:36.899Z,7.50
2019-02-19T20:58:01.831Z,7.00
2019-02-19T21:00:32.212Z,6.47
2019-02-19T21:03:01.332Z,6.53
2019-02-19T21:05:30.483Z,5.93
2019-02-19T21:07:59.747Z,7.77
2019-02-19T21:10:28.709Z,7.07
2019-02-19T21:12:58.255Z,8.07
2019-02-19T21:18:43.799Z,9.73
2019-02-19T21:40:39.886Z,7.17
2019-02-19T21:43:09.521Z,7.00
2019-02-19T21:52:35.884Z,6.27
2019-02-19T21:55:05.155Z,5.80
2019-02-19T22:01:14.555Z,5.00
2019-02-19T22:03:44.288Z,4.47
2019-02-19T22:06:14.049Z,4.50
2019-02-19T22:08:43.219Z,4.40
2019-02-19T22:11:12.479Z,3.80
2019-02-19T22:13:41.734Z,4.23
2019-02-19T22:16:11.005Z,4.03
2019-02-19T22:19:07.063Z,3.90
2019-02-19T22:22:03.540Z,3.73
2019-02-19T22:25:02.881Z,4.23
2019-02-19T23:03:00.786Z,5.53
2019-02-19T23:39:10.489Z,5.27
2019-02-19T23:41:45.962Z,5.33
